Time;durP1;ratioP1;P1;durP2;ratioP2;P2;SDS_P1;SDS_P2;PMS_P1;PMS_P2;Temp;Humidity;BMP_temperature;BMP_pressure;BME280_temperature;BME280_humidity;BME280_pressure;Samples;Min_cycle;Max_cycle;Signal;HPM_P1;HPM_P2
2021/04/16 04:27:27;;;;;;;37.40;19.27;;;;;;;;;;5246918;23;20497;-69
2021/04/16 04:29:53;;;;;;;34.08;20.00;;;;;;;;;;5011299;28;20084;-64
2021/04/16 04:32:19;;;;;;;39.97;23.25;;;;;;;;;;5010222;28;20074;-64
2021/04/16 04:34:45;;;;;;;43.65;22.85;;;;;;;;;;5012077;28;20057;-65
2021/04/16 04:37:12;;;;;;;37.53;21.15;;;;;;;;;;5011714;28;20037;-70
2021/04/16 04:39:40;;;;;;;46.80;27.88;;;;;;;;;;5011604;28;20033;-77
2021/04/16 04:42:07;;;;;;;42.53;24.67;;;;;;;;;;5011357;28;20029;-73
2021/04/16 04:44:33;;;;;;;39.47;21.05;;;;;;;;;;5011535;28;20101;-80
2021/04/16 04:47:00;;;;;;;44.58;23.25;;;;;;;;;;5009921;28;20061;-70
2021/04/16 04:49:26;;;;;;;47.72;25.13;;;;;;;;;;5010677;28;20088;-62
2021/04/16 04:52:07;;;;;;;51.00;30.17;;;;;;;;;;5011137;28;20030;-79
2021/04/16 04:54:33;;;;;;;71.38;40.30;;;;;;;;;;5011163;28;20039;-78
2021/04/16 04:56:59;;;;;;;56.95;31.27;;;;;;;;;;5011426;28;20025;-74
2021/04/16 04:59:25;;;;;;;41.25;23.27;;;;;;;;;;5011256;28;20034;-74
2021/04/16 05:01:51;;;;;;;23.73;14.98;;;;;;;;;;5011507;28;20028;-75
2021/04/16 05:04:17;;;;;;;21.58;12.27;;;;;;;;;;5010910;28;20037;-72
2021/04/16 05:06:43;;;;;;;18.73;12.35;;;;;;;;;;5011411;28;20022;-79
2021/04/16 05:09:09;;;;;;;26.15;15.48;;;;;;;;;;5010795;28;20473;-78
2021/04/16 05:11:35;;;;;;;29.30;14.90;;;;;;;;;;5010903;28;20037;-75
2021/04/16 05:14:01;;;;;;;23.98;13.30;;;;;;;;;;5010985;28;20034;-74
2021/04/16 05:16:27;;;;;;;25.90;13.48;;;;;;;;;;5010586;28;20054;-73
2021/04/16 05:18:54;;;;;;;24.85;13.73;;;;;;;;;;5011176;28;20037;-74
2021/04/16 05:21:20;;;;;;;24.20;13.10;;;;;;;;;;5010466;28;20022;-67
2021/04/16 05:23:46;;;;;;;26.88;14.45;;;;;;;;;;5010810;28;20026;-70
2021/04/16 05:26:12;;;;;;;22.30;13.18;;;;;;;;;;5010129;28;20034;-72
2021/04/16 05:28:38;;;;;;;21.65;13.10;;;;;;;;;;4992962;28;20126;-75
2021/04/16 05:31:04;;;;;;;24.50;14.00;;;;;;;;;;5010546;28;20512;-79
2021/04/16 05:33:30;;;;;;;25.60;13.32;;;;;;;;;;4995425;28;20048;-61
2021/04/16 05:35:56;;;;;;;22.00;12.75;;;;;;;;;;4992173;28;20061;-61
2021/04/16 05:38:22;;;;;;;24.77;13.65;;;;;;;;;;5010120;28;20018;-66
2021/04/16 05:40:49;;;;;;;24.65;14.35;;;;;;;;;;5016064;28;20040;-65
2021/04/16 05:43:15;;;;;;;25.27;13.57;;;;;;;;;;5020605;28;20101;-66
2021/04/16 05:45:41;;;;;;;25.02;14.38;;;;;;;;;;5014587;28;20029;-59
2021/04/16 05:48:07;;;;;;;22.35;13.52;;;;;;;;;;5018724;28;20159;-66
2021/04/16 05:50:33;;;;;;;21.50;12.40;;;;;;;;;;5014785;28;20146;-60
2021/04/16 05:53:02;;;;;;;20.25;12.20;;;;;;;;;;5018116;28;20104;-65
2021/04/16 05:55:28;;;;;;;21.27;12.35;;;;;;;;;;5017202;28;20597;-74
2021/04/16 05:57:54;;;;;;;19.25;11.77;;;;;;;;;;5019825;28;20021;-70
2021/04/16 06:00:21;;;;;;;23.58;12.07;;;;;;;;;;5015586;28;20121;-60
2021/04/16 06:02:48;;;;;;;23.23;12.45;;;;;;;;;;5017271;28;20076;-60
2021/04/16 06:05:16;;;;;;;20.10;11.10;;;;;;;;;;5016976;28;20100;-68
2021/04/16 06:07:42;;;;;;;17.52;10.80;;;;;;;;;;5011467;28;20489;-70
2021/04/16 06:10:09;;;;;;;22.67;12.32;;;;;;;;;;5011260;28;20030;-72
2021/04/16 06:12:37;;;;;;;23.30;12.48;;;;;;;;;;5017241;28;20115;-75
2021/04/16 06:15:06;;;;;;;17.20;11.68;;;;;;;;;;5017933;28;20114;-63
2021/04/16 06:17:33;;;;;;;19.90;11.02;;;;;;;;;;5007648;28;20026;-60
2021/04/16 06:19:59;;;;;;;19.77;11.68;;;;;;;;;;5022623;28;20032;-60
2021/04/16 06:22:25;;;;;;;18.30;10.82;;;;;;;;;;5015092;28;20034;-63
2021/04/16 06:24:51;;;;;;;17.42;10.50;;;;;;;;;;4992012;28;20046;-60
2021/04/16 06:27:18;;;;;;;24.27;12.38;;;;;;;;;;5008934;28;20045;-59
2021/04/16 06:29:44;;;;;;;21.42;11.93;;;;;;;;;;5010170;28;20033;-68
2021/04/16 06:32:10;;;;;;;24.75;14.88;;;;;;;;;;5008484;28;20040;-67
2021/04/16 06:34:36;;;;;;;20.80;12.38;;;;;;;;;;5012410;28;20193;-65
2021/04/16 06:37:02;;;;;;;21.05;12.40;;;;;;;;;;5013830;28;20036;-73
2021/04/16 06:39:28;;;;;;;22.67;12.43;;;;;;;;;;5013888;28;20025;-60
2021/04/16 06:41:55;;;;;;;19.88;11.30;;;;;;;;;;5012844;28;20044;-80
2021/04/16 06:44:28;;;;;;;19.83;11.48;;;;;;;;;;5002207;28;20033;-72
2021/04/16 06:46:57;;;;;;;22.17;11.95;;;;;;;;;;5033034;28;20119;-78
2021/04/16 06:49:26;;;;;;;19.33;10.80;;;;;;;;;;5013666;28;20100;-73
2021/04/16 06:51:57;;;;;;;21.23;12.02;;;;;;;;;;5017631;28;20041;-75
2021/04/16 06:54:27;;;;;;;21.63;12.85;;;;;;;;;;5022498;28;20037;-67
2021/04/16 06:56:55;;;;;;;21.63;11.82;;;;;;;;;;5021569;28;20460;-83
2021/04/16 06:59:24;;;;;;;49.42;27.60;;;;;;;;;;5024655;28;20052;-71
2021/04/16 07:01:59;;;;;;;18.25;10.40;;;;;;;;;;5005246;28;20025;-86
2021/04/16 07:04:42;;;;;;;11.63;7.82;;;;;;;;;;5016669;28;20485;-79
2021/04/16 07:07:11;;;;;;;14.10;8.35;;;;;;;;;;5011517;28;20037;-67
2021/04/16 07:09:39;;;;;;;10.75;7.32;;;;;;;;;;5009129;28;20061;-77
2021/04/16 07:12:16;;;;;;;12.25;8.07;;;;;;;;;;5024615;28;20088;-76
2021/04/16 07:14:56;;;;;;;13.38;8.60;;;;;;;;;;5023396;28;20029;-74
2021/04/16 07:17:24;;;;;;;15.32;9.77;;;;;;;;;;5021671;28;20104;-64
2021/04/16 07:19:51;;;;;;;14.98;9.32;;;;;;;;;;5024127;28;20111;-64
2021/04/16 07:22:37;;;;;;;16.02;9.70;;;;;;;;;;5017565;28;20585;-80
2021/04/16 07:25:12;;;;;;;14.38;9.35;;;;;;;;;;5012376;28;20082;-79
2021/04/16 07:27:48;;;;;;;17.83;11.68;;;;;;;;;;5012834;28;20049;-81
2021/04/16 07:30:28;;;;;;;23.13;14.23;;;;;;;;;;5012746;28;20037;-63
2021/04/16 07:32:54;;;;;;;18.92;11.95;;;;;;;;;;5012620;28;20033;-64
2021/04/16 07:35:25;;;;;;;17.55;11.20;;;;;;;;;;5013207;28;20029;-60
2021/04/16 07:38:10;;;;;;;18.90;12.70;;;;;;;;;;5010840;28;20081;-74
2021/04/16 07:40:41;;;;;;;22.00;14.07;;;;;;;;;;5012780;28;20470;-75
2021/04/16 07:43:07;;;;;;;20.38;13.77;;;;;;;;;;5012655;28;20401;-66
2021/04/16 07:45:36;;;;;;;17.13;10.73;;;;;;;;;;5011982;28;20026;-74
2021/04/16 07:48:21;;;;;;;20.90;12.77;;;;;;;;;;5013279;28;20062;-72
2021/04/16 07:50:48;;;;;;;20.38;10.82;;;;;;;;;;4994166;28;20528;-66
2021/04/16 07:53:27;;;;;;;20.77;14.13;;;;;;;;;;5012869;28;20120;-73
2021/04/16 07:56:18;;;;;;;18.67;12.23;;;;;;;;;;5012133;28;20117;-60
2021/04/16 07:58:49;;;;;;;15.15;11.57;;;;;;;;;;5005523;28;20030;-72
2021/04/16 08:01:18;;;;;;;14.75;10.10;;;;;;;;;;5012676;28;20045;-71
2021/04/16 08:03:55;;;;;;;12.73;9.68;;;;;;;;;;5012017;28;20089;-60
2021/04/16 08:06:30;;;;;;;20.10;10.73;;;;;;;;;;5013238;28;20444;-61
2021/04/16 08:08:57;;;;;;;15.57;9.73;;;;;;;;;;5012596;28;20033;-72
2021/04/16 08:11:25;;;;;;;11.80;8.73;;;;;;;;;;5011807;28;20034;-70
2021/04/16 08:13:56;;;;;;;15.07;9.65;;;;;;;;;;5012168;28;20544;-75
2021/04/16 08:16:25;;;;;;;11.70;8.27;;;;;;;;;;5012416;28;20057;-71
2021/04/16 08:18:57;;;;;;;13.00;8.73;;;;;;;;;;5011462;28;20104;-74
2021/04/16 08:21:24;;;;;;;12.40;9.05;;;;;;;;;;5011976;28;20033;-61
2021/04/16 08:23:59;;;;;;;12.85;8.55;;;;;;;;;;5011664;28;20033;-66
2021/04/16 08:26:28;;;;;;;13.60;9.90;;;;;;;;;;5011262;28;20053;-63
2021/04/16 08:29:08;;;;;;;12.05;8.80;;;;;;;;;;5011684;28;20022;-60
2021/04/16 08:31:42;;;;;;;9.23;6.75;;;;;;;;;;5011226;28;20053;-79
2021/04/16 08:34:13;;;;;;;12.18;6.70;;;;;;;;;;5011519;28;20025;-77
2021/04/16 08:36:40;;;;;;;11.30;8.00;;;;;;;;;;5008219;28;20093;-61
2021/04/16 08:39:15;;;;;;;11.10;7.82;;;;;;;;;;5009031;28;20058;-74
2021/04/16 08:41:56;;;;;;;8.52;7.30;;;;;;;;;;5010702;28;20022;-79
2021/04/16 08:44:23;;;;;;;11.57;7.40;;;;;;;;;;5010708;28;20026;-63
2021/04/16 08:46:50;;;;;;;6.82;4.82;;;;;;;;;;5010606;28;20490;-60
2021/04/16 08:49:16;;;;;;;6.82;4.30;;;;;;;;;;5010903;28;20034;-61
2021/04/16 08:51:45;;;;;;;8.75;6.75;;;;;;;;;;5010566;28;20061;-64
2021/04/16 08:54:11;;;;;;;9.32;7.05;;;;;;;;;;5011421;28;20473;-63
2021/04/16 08:56:47;;;;;;;10.10;7.47;;;;;;;;;;5010406;28;20042;-62
2021/04/16 08:59:16;;;;;;;9.65;7.18;;;;;;;;;;4991245;28;20023;-67
2021/04/16 09:01:49;;;;;;;10.18;7.82;;;;;;;;;;4990878;28;20031;-81
2021/04/16 09:04:16;;;;;;;10.55;6.75;;;;;;;;;;4991846;28;20057;-61
2021/04/16 09:06:45;;;;;;;9.98;7.18;;;;;;;;;;4992048;28;20105;-75
2021/04/16 09:09:13;;;;;;;11.18;6.85;;;;;;;;;;4991060;28;20032;-74
2021/04/16 09:11:43;;;;;;;8.07;6.00;;;;;;;;;;4989794;28;20083;-70
2021/04/16 09:14:10;;;;;;;8.30;6.32;;;;;;;;;;4973860;28;20033;-60
2021/04/16 09:16:48;;;;;;;8.20;6.25;;;;;;;;;;4990666;28;20034;-61
2021/04/16 09:19:23;;;;;;;7.00;5.63;;;;;;;;;;4990883;28;20037;-64
2021/04/16 09:22:05;;;;;;;7.13;5.95;;;;;;;;;;4972764;28;20100;-60
2021/04/16 09:24:52;;;;;;;9.30;7.07;;;;;;;;;;4990218;28;20037;-73
2021/04/16 09:27:27;;;;;;;15.68;12.25;;;;;;;;;;4977950;28;20057;-74
2021/04/16 09:30:13;;;;;;;10.65;6.10;;;;;;;;;;4990675;28;20169;-60
2021/04/16 09:32:47;;;;;;;7.05;5.80;;;;;;;;;;4989903;28;20030;-74
2021/04/16 09:35:19;;;;;;;9.30;6.10;;;;;;;;;;4990930;28;20418;-73
2021/04/16 09:37:47;;;;;;;8.68;6.22;;;;;;;;;;4990203;28;20239;-60
2021/04/16 09:40:16;;;;;;;11.02;6.28;;;;;;;;;;4990095;28;20026;-60
2021/04/16 09:42:49;;;;;;;11.50;8.63;;;;;;;;;;4990730;28;20045;-60
2021/04/16 09:45:30;;;;;;;9.30;6.78;;;;;;;;;;4990296;28;20150;-73
2021/04/16 09:47:59;;;;;;;8.85;6.70;;;;;;;;;;4999359;28;20018;-71
2021/04/16 09:50:25;;;;;;;10.23;7.57;;;;;;;;;;5009129;28;20029;-68
2021/04/16 09:52:54;;;;;;;11.07;6.68;;;;;;;;;;5009377;28;20033;-74
2021/04/16 09:55:38;;;;;;;9.18;5.95;;;;;;;;;;5010228;28;20410;-78
2021/04/16 09:58:05;;;;;;;8.60;6.47;;;;;;;;;;5009511;28;20037;-66
2021/04/16 10:00:39;;;;;;;7.45;5.45;;;;;;;;;;5009462;28;20065;-72
2021/04/16 10:03:20;;;;;;;8.13;6.65;;;;;;;;;;5010426;28;20458;-79
2021/04/16 10:05:46;;;;;;;9.23;6.53;;;;;;;;;;5010369;28;20034;-75
2021/04/16 10:08:19;;;;;;;9.00;5.53;;;;;;;;;;5013081;28;20116;-74
2021/04/16 10:10:45;;;;;;;8.27;6.35;;;;;;;;;;5013943;28;20038;-80
2021/04/16 10:13:22;;;;;;;8.68;6.07;;;;;;;;;;5014116;28;20100;-77
2021/04/16 10:15:52;;;;;;;8.35;5.07;;;;;;;;;;5013507;28;20540;-62
2021/04/16 10:18:18;;;;;;;5.85;4.95;;;;;;;;;;5013874;28;20326;-64
2021/04/16 10:20:54;;;;;;;7.32;4.78;;;;;;;;;;5013387;28;20517;-62
2021/04/16 10:23:28;;;;;;;8.35;4.97;;;;;;;;;;5013418;28;20033;-60
2021/04/16 10:27:09;;;;;;;8.20;4.40;;;;;;;;;;5013505;28;20048;-62
2021/04/16 10:40:43;;;;;;;8.18;5.75;;;;;;;;;;5013562;28;20033;-61
2021/04/16 12:38:08;;;;;;;9.77;5.65;;;;;;;;;;5017727;28;20105;-67
2021/04/16 12:40:35;;;;;;;8.50;5.70;;;;;;;;;;5006713;28;20962;-73
2021/04/16 12:43:03;;;;;;;8.43;5.32;;;;;;;;;;5011167;28;20523;-70
2021/04/16 12:45:29;;;;;;;8.10;5.75;;;;;;;;;;5011188;28;20033;-68
2021/04/16 12:47:59;;;;;;;8.45;5.50;;;;;;;;;;5010439;28;20448;-69
2021/04/16 12:50:26;;;;;;;7.93;5.55;;;;;;;;;;5010869;28;20033;-68
2021/04/16 12:52:52;;;;;;;6.65;5.07;;;;;;;;;;5020592;28;20033;-68
2021/04/16 12:55:19;;;;;;;8.50;5.57;;;;;;;;;;5020390;28;20030;-76
2021/04/16 12:57:46;;;;;;;7.53;5.20;;;;;;;;;;5019131;28;20026;-72
2021/04/16 13:00:14;;;;;;;8.07;5.78;;;;;;;;;;5018726;28;20112;-70
2021/04/16 13:02:41;;;;;;;7.15;5.57;;;;;;;;;;5019882;28;20432;-67
2021/04/16 13:05:08;;;;;;;7.72;5.32;;;;;;;;;;5015131;28;20026;-72
2021/04/16 13:07:35;;;;;;;12.35;5.70;;;;;;;;;;5020096;28;20024;-73
2021/04/16 13:10:01;;;;;;;9.55;6.00;;;;;;;;;;5021428;28;20426;-67
2021/04/16 13:12:27;;;;;;;9.40;5.40;;;;;;;;;;5016800;28;20026;-72
2021/04/16 13:14:53;;;;;;;8.90;5.63;;;;;;;;;;5021584;28;20022;-75
2021/04/16 13:17:21;;;;;;;12.93;7.80;;;;;;;;;;5017361;28;20370;-70
2021/04/16 13:19:48;;;;;;;6.93;5.20;;;;;;;;;;5015502;28;20025;-70
2021/04/16 13:22:15;;;;;;;10.60;6.93;;;;;;;;;;5022619;28;20036;-75
2021/04/16 13:24:43;;;;;;;11.80;7.50;;;;;;;;;;5019919;28;20049;-76
2021/04/16 13:27:10;;;;;;;14.63;9.20;;;;;;;;;;5018714;28;20052;-76
2021/04/16 13:29:36;;;;;;;7.28;5.60;;;;;;;;;;5018242;28;20111;-75
2021/04/16 13:32:03;;;;;;;18.63;7.50;;;;;;;;;;5020547;28;20040;-74
2021/04/16 13:34:29;;;;;;;9.57;5.70;;;;;;;;;;5022783;28;20076;-72
2021/04/16 13:36:56;;;;;;;9.18;5.55;;;;;;;;;;5019011;28;20037;-64
2021/04/16 13:39:22;;;;;;;7.78;5.00;;;;;;;;;;5011075;28;20469;-68
2021/04/16 13:41:48;;;;;;;9.73;6.55;;;;;;;;;;5010348;28;20022;-76
2021/04/16 13:44:15;;;;;;;9.45;6.60;;;;;;;;;;5010150;28;20535;-68
2021/04/16 13:46:42;;;;;;;13.88;7.97;;;;;;;;;;5025489;28;20033;-73
2021/04/16 13:49:10;;;;;;;10.27;7.65;;;;;;;;;;5029754;28;20095;-74
2021/04/16 13:51:37;;;;;;;13.38;7.72;;;;;;;;;;5029761;28;20060;-76
2021/04/16 13:54:05;;;;;;;9.95;6.75;;;;;;;;;;5030771;28;20021;-64
2021/04/16 13:56:32;;;;;;;11.35;6.18;;;;;;;;;;5031349;28;20036;-82
2021/04/16 13:58:58;;;;;;;12.13;6.28;;;;;;;;;;5030599;28;20038;-84
2021/04/16 14:01:24;;;;;;;9.30;5.68;;;;;;;;;;5030941;28;20033;-76
2021/04/16 14:03:51;;;;;;;8.25;5.88;;;;;;;;;;5030065;28;20036;-72
2021/04/16 14:06:27;;;;;;;10.27;5.88;;;;;;;;;;5030036;28;20025;-76
2021/04/16 14:08:59;;;;;;;8.18;6.05;;;;;;;;;;5029886;28;20033;-79
2021/04/16 14:11:25;;;;;;;12.88;5.85;;;;;;;;;;5030180;28;20041;-74
2021/04/16 14:13:51;;;;;;;8.07;5.85;;;;;;;;;;5029615;28;20465;-76
2021/04/16 14:16:37;;;;;;;8.30;5.68;;;;;;;;;;5029889;28;20532;-65
2021/04/16 14:19:18;;;;;;;11.60;6.63;;;;;;;;;;5015868;28;20045;-61
2021/04/16 14:21:44;;;;;;;10.52;7.20;;;;;;;;;;5018635;28;20029;-61
2021/04/16 14:24:11;;;;;;;13.13;8.43;;;;;;;;;;5021810;28;20345;-63
2021/04/16 14:26:38;;;;;;;13.70;7.35;;;;;;;;;;5017001;28;20038;-71
2021/04/16 14:29:04;;;;;;;9.65;6.88;;;;;;;;;;5018212;28;20104;-62
2021/04/16 14:31:30;;;;;;;8.52;6.50;;;;;;;;;;5018107;28;20117;-65
2021/04/16 14:33:56;;;;;;;9.48;7.18;;;;;;;;;;5015765;28;20029;-60
2021/04/16 14:36:22;;;;;;;13.00;8.45;;;;;;;;;;5011936;28;20100;-61
2021/04/16 14:38:48;;;;;;;12.20;7.97;;;;;;;;;;5027112;28;20033;-61
2021/04/16 14:41:19;;;;;;;31.63;17.30;;;;;;;;;;5011977;28;20096;-68
2021/04/16 14:43:45;;;;;;;16.65;10.55;;;;;;;;;;5009366;28;20029;-72
2021/04/16 14:46:11;;;;;;;8.88;6.20;;;;;;;;;;5010090;28;20500;-81
2021/04/16 14:48:37;;;;;;;11.02;6.20;;;;;;;;;;5010002;28;20052;-76
2021/04/16 14:51:04;;;;;;;8.27;6.10;;;;;;;;;;5010537;28;20099;-84
2021/04/16 14:53:34;;;;;;;8.45;6.15;;;;;;;;;;4993191;28;20029;-62
2021/04/16 14:56:01;;;;;;;8.15;5.85;;;;;;;;;;5023653;28;20037;-63
2021/04/16 14:58:33;;;;;;;9.48;6.35;;;;;;;;;;5032250;28;20041;-61
2021/04/16 15:00:59;;;;;;;14.25;7.05;;;;;;;;;;5030293;28;20029;-65
2021/04/16 15:03:25;;;;;;;7.88;5.88;;;;;;;;;;5011726;28;20092;-65
2021/04/16 15:05:51;;;;;;;8.82;6.28;;;;;;;;;;5010978;28;20033;-60
2021/04/16 15:08:23;;;;;;;10.73;7.00;;;;;;;;;;5014366;28;20036;-61
2021/04/16 15:10:49;;;;;;;;;;;;;;;;;;5015823;28;20788;-62
2021/04/16 15:13:20;;;;;;;8.55;6.53;;;;;;;;;;5015800;28;19952;-62
2021/04/16 15:15:46;;;;;;;14.02;8.82;;;;;;;;;;5012145;28;20076;-60
2021/04/16 15:18:13;;;;;;;11.98;8.23;;;;;;;;;;5011286;28;20042;-63
2021/04/16 15:20:41;;;;;;;10.48;6.53;;;;;;;;;;5011433;28;20493;-67
2021/04/16 15:23:08;;;;;;;10.10;6.25;;;;;;;;;;5056713;22;20049;-61
2021/04/16 15:25:41;;;;;;;8.80;5.97;;;;;;;;;;4999533;28;20041;-63
2021/04/16 15:28:11;;;;;;;9.65;6.10;;;;;;;;;;5004914;28;20528;-67
2021/04/16 15:30:38;;;;;;;7.60;5.72;;;;;;;;;;5007650;28;20115;-71
2021/04/16 15:33:12;;;;;;;9.55;7.10;;;;;;;;;;4996174;28;20026;-67
2021/04/16 15:46:55;;;;;;;27.73;13.82;;;;;;;;;;5023795;28;20036;-65
2021/04/16 15:49:22;;;;;;;19.90;11.23;;;;;;;;;;5020263;28;20025;-63
2021/04/16 15:51:49;;;;;;;17.20;11.30;;;;;;;;;;5025706;28;20572;-70
2021/04/16 15:54:15;;;;;;;9.75;6.90;;;;;;;;;;5030976;28;20840;-65
2021/04/16 15:56:44;;;;;;;8.80;7.13;;;;;;;;;;5050307;28;20138;-66
2021/04/16 15:59:13;;;;;;;19.00;11.90;;;;;;;;;;5048009;28;20052;-61
2021/04/16 16:01:39;;;;;;;13.98;9.30;;;;;;;;;;5041200;28;20476;-61
2021/04/16 16:04:05;;;;;;;17.55;11.48;;;;;;;;;;5037773;28;20037;-62
2021/04/16 16:06:31;;;;;;;12.40;8.70;;;;;;;;;;5049366;28;20037;-66
2021/04/16 16:08:58;;;;;;;10.68;8.25;;;;;;;;;;5041210;28;20025;-61
2021/04/16 16:11:35;;;;;;;15.73;10.25;;;;;;;;;;5031748;28;20495;-69
2021/04/16 16:14:03;;;;;;;17.85;10.13;;;;;;;;;;5020360;28;20030;-61
2021/04/16 16:16:29;;;;;;;17.48;10.57;;;;;;;;;;5000207;28;20094;-62
2021/04/16 16:18:55;;;;;;;23.85;12.75;;;;;;;;;;5030004;28;20037;-65
2021/04/16 16:21:21;;;;;;;20.98;11.70;;;;;;;;;;5027334;28;20500;-62
2021/04/16 16:23:49;;;;;;;14.00;9.43;;;;;;;;;;5031476;28;20049;-72
2021/04/16 16:26:26;;;;;;;15.73;10.65;;;;;;;;;;5001943;28;20042;-70
2021/04/16 16:28:53;;;;;;;17.60;10.55;;;;;;;;;;5039597;28;20051;-80
2021/04/16 16:31:19;;;;;;;24.63;15.18;;;;;;;;;;5018707;28;20503;-78
2021/04/16 16:33:45;;;;;;;23.27;16.27;;;;;;;;;;5036036;28;20021;-79
2021/04/16 16:36:11;;;;;;;21.63;10.77;;;;;;;;;;5025814;28;20041;-61
2021/04/16 16:38:37;;;;;;;13.88;10.05;;;;;;;;;;5036433;28;20080;-61
2021/04/16 16:41:04;;;;;;;16.08;11.13;;;;;;;;;;5024540;23;20085;-67
2021/04/16 16:43:32;;;;;;;18.45;12.02;;;;;;;;;;5001619;28;20097;-66
2021/04/16 16:46:03;;;;;;;31.30;18.92;;;;;;;;;;5000816;28;20026;-76
2021/04/16 16:48:29;;;;;;;21.92;13.23;;;;;;;;;;5000157;28;20018;-74
2021/04/16 16:50:55;;;;;;;32.58;17.20;;;;;;;;;;4997301;28;20042;-64
2021/04/16 16:53:22;;;;;;;10.70;7.65;;;;;;;;;;4999251;28;20065;-69
2021/04/16 16:55:49;;;;;;;10.60;7.25;;;;;;;;;;5001531;28;20033;-73
2021/04/16 16:58:16;;;;;;;14.35;9.65;;;;;;;;;;5008406;28;20022;-69
2021/04/16 17:01:01;;;;;;;16.55;9.68;;;;;;;;;;5011541;28;20504;-66
2021/04/16 17:03:28;;;;;;;9.50;7.10;;;;;;;;;;5012371;28;20057;-68
2021/04/16 17:05:54;;;;;;;9.93;6.72;;;;;;;;;;5012610;28;20030;-66
2021/04/16 17:08:21;;;;;;;15.68;9.90;;;;;;;;;;5004740;28;20026;-67
2021/04/16 17:10:48;;;;;;;20.00;12.30;;;;;;;;;;4992931;28;20097;-70
2021/04/16 17:13:14;;;;;;;15.93;9.27;;;;;;;;;;4991319;28;20042;-67
2021/04/16 17:15:42;;;;;;;23.88;14.05;;;;;;;;;;4999183;28;20029;-67
2021/04/16 17:18:08;;;;;;;34.30;19.02;;;;;;;;;;5027892;28;20029;-67
2021/04/16 17:20:35;;;;;;;24.38;14.68;;;;;;;;;;5030278;28;20029;-69
2021/04/16 17:23:01;;;;;;;25.83;14.68;;;;;;;;;;5023527;28;20461;-67
2021/04/16 17:25:28;;;;;;;26.75;14.93;;;;;;;;;;5010461;28;20105;-72
2021/04/16 17:27:55;;;;;;;31.55;18.60;;;;;;;;;;5029579;28;20112;-73
2021/04/16 17:30:21;;;;;;;43.70;24.77;;;;;;;;;;5018327;28;20482;-69
2021/04/16 17:32:47;;;;;;;34.80;22.02;;;;;;;;;;5021613;28;20033;-66
2021/04/16 17:35:14;;;;;;;42.55;26.45;;;;;;;;;;5020921;28;20030;-70
2021/04/16 17:37:40;;;;;;;33.83;21.45;;;;;;;;;;5020781;28;20041;-69
2021/04/16 17:40:07;;;;;;;38.78;21.70;;;;;;;;;;5010673;28;20513;-73
2021/04/16 17:42:35;;;;;;;41.38;22.23;;;;;;;;;;5002610;28;20022;-66
2021/04/16 17:45:08;;;;;;;51.65;28.85;;;;;;;;;;5007732;28;20034;-68
2021/04/16 17:47:34;;;;;;;51.50;25.70;;;;;;;;;;5115777;23;20050;-66
2021/04/16 17:50:00;;;;;;;31.48;17.67;;;;;;;;;;5010547;28;20033;-73
2021/04/16 17:52:26;;;;;;;46.00;23.83;;;;;;;;;;5010707;28;20022;-74
2021/04/16 17:54:53;;;;;;;29.02;17.00;;;;;;;;;;5009995;28;20068;-73
2021/04/16 17:57:23;;;;;;;36.85;20.70;;;;;;;;;;5010265;28;20457;-66
2021/04/16 17:59:49;;;;;;;26.38;14.75;;;;;;;;;;5010013;28;20045;-71
2021/04/16 18:02:15;;;;;;;45.80;24.33;;;;;;;;;;5009381;28;20064;-73
2021/04/16 18:04:41;;;;;;;80.70;38.90;;;;;;;;;;5007634;28;20421;-72
2021/04/16 18:07:17;;;;;;;41.47;23.38;;;;;;;;;;5008619;28;20030;-66
2021/04/16 18:09:43;;;;;;;31.00;18.27;;;;;;;;;;5000578;28;20018;-69
2021/04/16 18:12:09;;;;;;;34.97;17.05;;;;;;;;;;5010472;28;20281;-79
2021/04/16 18:14:35;;;;;;;30.98;16.58;;;;;;;;;;5010464;28;20018;-74
2021/04/16 18:17:02;;;;;;;33.42;19.17;;;;;;;;;;5008996;28;20034;-66
2021/04/16 18:19:28;;;;;;;40.28;21.73;;;;;;;;;;5010016;28;20533;-72
2021/04/16 18:21:54;;;;;;;42.72;22.33;;;;;;;;;;5010431;28;20083;-70
2021/04/16 18:24:20;;;;;;;35.17;18.95;;;;;;;;;;5009682;28;20474;-67
2021/04/16 18:26:47;;;;;;;40.72;21.88;;;;;;;;;;5118363;23;20064;-68
2021/04/16 18:29:13;;;;;;;45.35;24.25;;;;;;;;;;5033836;28;20028;-70
2021/04/16 18:31:39;;;;;;;29.23;17.40;;;;;;;;;;5033903;28;20116;-66
2021/04/16 18:34:05;;;;;;;38.03;20.77;;;;;;;;;;5033591;28;20018;-68
2021/04/16 18:36:34;;;;;;;58.13;30.85;;;;;;;;;;5033640;28;20041;-66
2021/04/16 18:39:03;;;;;;;52.25;27.17;;;;;;;;;;5033532;28;20037;-72
2021/04/16 18:41:34;;;;;;;73.57;34.20;;;;;;;;;;5033243;28;20469;-68
2021/04/16 18:44:02;;;;;;;70.38;34.42;;;;;;;;;;5033878;28;20104;-72
2021/04/16 18:46:28;;;;;;;70.70;33.25;;;;;;;;;;5031301;28;20108;-68
2021/04/16 18:48:54;;;;;;;73.05;32.25;;;;;;;;;;5022787;28;20034;-71
2021/04/16 18:51:22;;;;;;;88.43;39.80;;;;;;;;;;4997023;28;20132;-70
2021/04/16 18:53:50;;;;;;;72.38;33.83;;;;;;;;;;5032936;28;20025;-69
2021/04/16 18:56:18;;;;;;;76.25;36.92;;;;;;;;;;5133468;23;20061;-74
2021/04/16 18:58:45;;;;;;;75.75;36.22;;;;;;;;;;5008750;28;20425;-72
2021/04/16 19:01:19;;;;;;;67.25;32.00;;;;;;;;;;4993860;28;20113;-76
2021/04/16 19:03:45;;;;;;;58.67;28.33;;;;;;;;;;4993101;28;20496;-73
2021/04/16 19:06:13;;;;;;;50.63;26.83;;;;;;;;;;4994862;28;20557;-77
2021/04/16 19:08:39;;;;;;;33.83;18.73;;;;;;;;;;4994134;28;20072;-72
2021/04/16 19:11:06;;;;;;;44.08;23.35;;;;;;;;;;5013577;28;20042;-78
2021/04/16 19:13:32;;;;;;;48.42;25.20;;;;;;;;;;5013032;28;20022;-75
2021/04/16 19:15:58;;;;;;;48.85;27.30;;;;;;;;;;4994728;28;20064;-75
2021/04/16 19:18:24;;;;;;;41.75;21.80;;;;;;;;;;5012881;28;20088;-72
2021/04/16 19:20:52;;;;;;;44.92;22.98;;;;;;;;;;5013777;28;20041;-84
2021/04/16 19:23:45;;;;;;;36.97;20.95;;;;;;;;;;5012440;28;20026;-79
2021/04/16 19:26:18;;;;;;;31.17;16.48;;;;;;;;;;4989556;28;20053;-77
2021/04/16 19:28:45;;;;;;;30.65;17.58;;;;;;;;;;5013300;28;20070;-78
2021/04/16 19:31:12;;;;;;;31.83;17.55;;;;;;;;;;4994896;28;20037;-73
2021/04/16 19:33:39;;;;;;;31.02;17.30;;;;;;;;;;5012552;28;20018;-76
2021/04/16 19:36:07;;;;;;;31.60;17.02;;;;;;;;;;5012772;28;20108;-78
2021/04/16 19:38:33;;;;;;;30.88;16.35;;;;;;;;;;5056137;23;20050;-80
2021/04/16 19:41:01;;;;;;;26.58;14.50;;;;;;;;;;4994377;28;20041;-75
2021/04/16 19:43:29;;;;;;;27.33;13.77;;;;;;;;;;5011230;28;20018;-75
2021/04/16 19:45:55;;;;;;;24.02;14.98;;;;;;;;;;5008978;28;20219;-75
2021/04/16 20:18:10;;;;;;;47.40;24.35;;;;;;;;;;5013702;28;20508;-82
2021/04/16 20:20:42;;;;;;;48.70;24.38;;;;;;;;;;5013818;28;20396;-74
2021/04/16 20:23:09;;;;;;;37.70;20.48;;;;;;;;;;5001788;28;20040;-76
2021/04/16 20:25:44;;;;;;;49.08;25.38;;;;;;;;;;5132526;23;20525;-81
2021/04/16 20:28:11;;;;;;;41.83;22.70;;;;;;;;;;4991415;28;20639;-82
2021/04/16 20:30:41;;;;;;;41.40;22.08;;;;;;;;;;4997355;28;20030;-81
2021/04/16 20:33:13;;;;;;;35.35;20.23;;;;;;;;;;5001088;28;20036;-81
2021/04/16 20:35:40;;;;;;;38.22;20.42;;;;;;;;;;5001861;28;20022;-81
2021/04/16 20:38:07;;;;;;;40.42;20.67;;;;;;;;;;4982004;28;20118;-82
2021/04/16 20:40:36;;;;;;;35.20;20.17;;;;;;;;;;5002139;28;20021;-80
2021/04/16 20:43:03;;;;;;;37.83;20.23;;;;;;;;;;5002173;28;20042;-82
2021/04/16 20:45:30;;;;;;;34.35;20.13;;;;;;;;;;4997810;28;20035;-79
2021/04/16 20:47:57;;;;;;;38.38;20.05;;;;;;;;;;5001490;28;20021;-81
2021/04/16 20:50:26;;;;;;;34.75;20.10;;;;;;;;;;5001480;28;20035;-81
2021/04/16 20:52:52;;;;;;;35.00;21.00;;;;;;;;;;4998048;28;20026;-81
2021/04/16 20:55:22;;;;;;;36.97;20.70;;;;;;;;;;5000979;28;20770;-82
2021/04/16 20:57:49;;;;;;;40.03;20.67;;;;;;;;;;5001952;28;20132;-82
2021/04/16 21:00:18;;;;;;;39.83;21.80;;;;;;;;;;5000808;28;20019;-82
2021/04/16 21:03:05;;;;;;;41.75;22.05;;;;;;;;;;5008745;28;20033;-82
2021/04/16 21:05:33;;;;;;;43.63;23.02;;;;;;;;;;4998073;28;20612;-82
2021/04/16 21:07:59;;;;;;;41.28;23.50;;;;;;;;;;5005532;28;20047;-80
2021/04/16 21:10:26;;;;;;;42.28;24.52;;;;;;;;;;4991126;28;20034;-81
2021/04/16 21:12:53;;;;;;;47.17;25.67;;;;;;;;;;4999483;28;20108;-83
2021/04/16 21:15:22;;;;;;;48.70;24.27;;;;;;;;;;5005389;28;20026;-79
2021/04/16 21:17:48;;;;;;;46.90;25.95;;;;;;;;;;5002697;28;20299;-75
2021/04/16 21:20:27;;;;;;;53.10;29.02;;;;;;;;;;5117856;22;20054;-70
2021/04/16 21:22:53;;;;;;;66.50;33.80;;;;;;;;;;4992703;28;20038;-69
2021/04/16 21:25:21;;;;;;;64.93;32.00;;;;;;;;;;4997100;28;20104;-71
2021/04/16 21:27:47;;;;;;;61.45;30.35;;;;;;;;;;5004523;28;20026;-70
2021/04/16 21:30:15;;;;;;;55.63;28.25;;;;;;;;;;5129929;23;20144;-76
2021/04/16 21:32:43;;;;;;;61.03;30.13;;;;;;;;;;5003249;28;20033;-70
2021/04/16 21:35:17;;;;;;;59.05;30.40;;;;;;;;;;5002954;28;20059;-71
2021/04/16 21:37:44;;;;;;;60.40;31.02;;;;;;;;;;5000518;28;20139;-76
2021/04/16 21:40:22;;;;;;;62.85;30.50;;;;;;;;;;4998498;28;20023;-73
